createdAt,value
2022-10-24T00:01:27.824Z,158605.81
2022-10-24T00:03:55.447Z,158689.75
2022-10-24T00:06:23.106Z,158741.75
2022-10-24T00:08:51.235Z,158748.41
2022-10-24T00:11:24.516Z,158751.06
2022-10-24T00:13:53.550Z,158739.03
2022-10-24T00:16:23.171Z,158717.72
2022-10-24T00:18:51.184Z,158724.41
2022-10-24T00:21:19.095Z,158713.75
2022-10-24T00:23:47.071Z,158701.75
2022-10-24T00:26:15.955Z,158668.44
2022-10-24T00:28:44.121Z,158643.16
2022-10-24T00:31:16.532Z,158676.44
2022-10-24T00:33:45.339Z,158695.09
2022-10-24T00:36:15.069Z,158709.75
2022-10-24T00:38:42.865Z,158693.78
2022-10-24T00:41:16.241Z,158691.13
2022-10-24T00:43:43.874Z,158755.06
2022-10-24T00:46:11.554Z,158803.06
2022-10-24T00:48:45.299Z,158835.06
2022-10-24T00:51:31.907Z,158835.06
2022-10-24T00:54:05.565Z,158856.41
2022-10-24T00:56:35.903Z,158889.72
2022-10-24T00:59:06.292Z,158900.38
2022-10-24T01:01:34.483Z,158909.72
2022-10-24T01:04:02.344Z,158920.38
2022-10-24T01:06:37.262Z,158920.38
2022-10-24T01:09:42.610Z,158927.03
2022-10-24T01:12:28.743Z,158933.72
2022-10-24T01:15:23.177Z,158941.69
2022-10-24T01:18:15.005Z,158945.72
2022-10-24T01:20:45.658Z,158952.38
2022-10-24T01:23:24.246Z,158963.03
2022-10-24T01:26:23.704Z,158963.03
2022-10-24T01:29:20.733Z,158997.69
2022-10-24T01:31:55.001Z,158999.03
2022-10-24T01:34:37.100Z,159003.03
2022-10-24T01:37:08.663Z,158967.06
2022-10-24T01:39:51.589Z,158999.03
2022-10-24T01:42:22.626Z,159007.00
2022-10-24T01:44:53.638Z,159016.38
2022-10-24T01:47:27.918Z,159017.72
2022-10-24T01:50:02.520Z,158999.03
2022-10-24T01:52:34.085Z,158996.38
2022-10-24T01:55:02.193Z,158989.69
2022-10-24T01:57:31.959Z,158985.69
2022-10-24T01:59:59.489Z,159001.72
2022-10-24T02:02:36.399Z,159001.72
2022-10-24T02:05:10.241Z,159017.72
2022-10-24T02:07:40.665Z,159011.03
2022-10-24T02:10:29.253Z,159021.69
2022-10-24T02:13:02.923Z,159024.38
2022-10-24T02:15:34.269Z,159005.69
2022-10-24T02:18:02.066Z,158980.38
2022-10-24T02:20:57.576Z,158976.38
2022-10-24T02:23:38.564Z,158972.34
2022-10-24T02:26:08.926Z,158997.69
2022-10-24T02:28:40.868Z,159009.72
2022-10-24T02:31:22.669Z,159001.72
2022-10-24T02:33:52.165Z,158977.69
2022-10-24T02:36:23.250Z,158981.72
2022-10-24T02:38:52.539Z,158973.72
2022-10-24T02:41:29.469Z,158964.34
2022-10-24T02:43:57.938Z,158952.38
2022-10-24T02:46:26.426Z,158972.34
2022-10-24T02:48:57.609Z,158968.38
2022-10-24T02:51:28.767Z,158965.72
2022-10-24T02:53:57.808Z,158951.00
2022-10-24T02:56:25.271Z,158933.72
2022-10-24T02:58:52.913Z,158932.38
2022-10-24T03:01:20.310Z,158945.72
2022-10-24T03:03:48.155Z,158943.03
2022-10-24T03:06:15.812Z,158929.69
2022-10-24T03:08:43.252Z,158913.69
2022-10-24T03:11:10.833Z,158899.03
2022-10-24T03:13:38.443Z,158896.41
2022-10-24T03:16:07.911Z,158896.41
2022-10-24T03:18:38.234Z,158897.72
2022-10-24T03:21:05.725Z,158883.06
2022-10-24T03:23:33.469Z,158895.03
2022-10-24T03:26:00.909Z,158888.41
2022-10-24T03:28:28.624Z,158883.06
2022-10-24T03:30:56.478Z,158887.03
2022-10-24T03:33:24.149Z,158840.41
2022-10-24T03:35:55.082Z,158864.38
2022-10-24T03:38:23.445Z,158863.06
2022-10-24T03:40:51.406Z,158859.03
2022-10-24T03:43:19.382Z,158852.38
2022-10-24T03:45:46.980Z,158839.09
2022-10-24T03:48:14.700Z,158853.75
2022-10-24T03:50:42.188Z,158855.06
2022-10-24T03:53:09.924Z,158876.41
2022-10-24T03:55:37.369Z,158877.72
2022-10-24T03:58:05.226Z,158849.72
2022-10-24T04:00:35.015Z,158861.75
2022-10-24T04:03:03.093Z,158872.38
2022-10-24T04:05:30.412Z,158856.41
2022-10-24T04:07:58.092Z,158864.38
2022-10-24T04:10:25.726Z,158876.41
2022-10-24T04:12:53.518Z,158880.38
2022-10-24T04:15:21.164Z,158860.41
2022-10-24T04:17:48.953Z,158877.72
2022-10-24T04:20:20.010Z,158877.72
2022-10-24T04:22:47.972Z,158864.38
2022-10-24T04:25:16.174Z,158887.03
2022-10-24T04:27:44.086Z,158907.03
2022-10-24T04:30:16.473Z,158892.38
2022-10-24T04:32:45.411Z,158897.72
2022-10-24T04:35:14.304Z,158905.72
2022-10-24T04:37:42.115Z,158903.06
2022-10-24T04:40:10.669Z,158919.03
2022-10-24T04:42:38.279Z,158923.00
2022-10-24T04:45:06.628Z,158945.72
2022-10-24T04:47:34.481Z,158952.38
2022-10-24T04:50:02.182Z,158929.69
2022-10-24T04:52:30.335Z,158951.00
2022-10-24T04:54:57.738Z,158960.38
2022-10-24T04:57:25.473Z,158964.34
2022-10-24T04:59:52.864Z,158957.69
2022-10-24T05:02:20.655Z,158971.03
2022-10-24T05:04:48.283Z,158972.34
2022-10-24T05:07:15.961Z,158979.00
2022-10-24T05:09:43.503Z,158973.72
2022-10-24T05:12:11.164Z,158971.03
2022-10-24T05:14:38.706Z,158991.03
2022-10-24T05:17:06.849Z,158996.38
2022-10-24T05:19:34.374Z,158989.69
2022-10-24T05:22:03.240Z,158992.34
2022-10-24T05:24:32.810Z,159013.69
2022-10-24T05:27:00.719Z,159024.38
2022-10-24T05:29:31.382Z,159021.69
2022-10-24T05:31:59.297Z,159052.38
2022-10-24T05:34:27.770Z,159044.38
2022-10-24T05:36:55.449Z,159075.03
2022-10-24T05:39:23.081Z,159051.06
2022-10-24T05:41:54.479Z,159044.38
2022-10-24T05:44:22.951Z,159056.34
2022-10-24T05:46:50.815Z,159057.72
2022-10-24T05:49:18.571Z,159069.69
2022-10-24T05:51:46.889Z,159059.06
2022-10-24T05:54:14.722Z,159093.72
2022-10-24T05:56:42.501Z,159107.06
2022-10-24T05:59:09.830Z,159103.06
2022-10-24T06:01:37.514Z,159077.69
2022-10-24T06:04:08.852Z,159097.69
2022-10-24T06:06:43.322Z,159101.72
2022-10-24T06:09:11.847Z,159108.41
2022-10-24T06:11:39.859Z,159105.69
2022-10-24T06:14:07.399Z,159105.69
2022-10-24T06:16:35.654Z,159099.03
2022-10-24T06:19:03.332Z,159129.75
2022-10-24T06:21:31.038Z,159148.38
2022-10-24T06:23:59.263Z,159144.41
2022-10-24T06:26:26.925Z,159165.75
2022-10-24T06:28:55.814Z,159152.41
2022-10-24T06:31:23.515Z,159147.06
2022-10-24T06:33:51.174Z,159153.72
2022-10-24T06:36:19.234Z,159180.41
2022-10-24T06:38:46.810Z,159173.75
2022-10-24T06:41:17.180Z,159169.78
2022-10-24T06:43:44.659Z,159179.09
2022-10-24T06:46:15.986Z,159200.44
2022-10-24T06:48:43.969Z,159217.75
2022-10-24T06:51:15.355Z,159221.78
2022-10-24T06:53:42.996Z,159209.75
2022-10-24T06:56:10.565Z,159219.13
2022-10-24T06:58:38.301Z,159241.81
2022-10-24T07:01:17.050Z,159253.78
2022-10-24T07:03:45.292Z,159256.47
2022-10-24T07:06:27.187Z,159252.44
2022-10-24T07:08:58.161Z,159271.19
2022-10-24T07:11:26.531Z,159280.53
2022-10-24T07:13:56.667Z,159285.88
2022-10-24T07:16:27.816Z,159284.56
2022-10-24T07:18:55.732Z,159293.88
2022-10-24T07:21:25.974Z,159311.25
2022-10-24T07:23:54.220Z,159324.59
2022-10-24T07:26:23.822Z,159347.28
2022-10-24T07:28:56.235Z,159369.97
2022-10-24T07:31:26.629Z,159377.94
2022-10-24T07:33:54.616Z,159343.25
2022-10-24T07:36:24.551Z,159352.56
2022-10-24T07:38:53.833Z,159355.28
2022-10-24T07:41:22.071Z,159328.56
2022-10-24T07:43:49.509Z,159317.94
2022-10-24T07:46:18.936Z,159295.19
2022-10-24T07:48:46.520Z,159265.81
2022-10-24T07:51:14.650Z,159263.16
2022-10-24T07:53:42.814Z,159264.47
2022-10-24T07:56:13.642Z,159265.81
2022-10-24T07:58:40.898Z,159273.84
2022-10-24T08:01:17.271Z,159276.56
2022-10-24T08:03:44.931Z,159297.91
2022-10-24T08:06:15.905Z,159312.56
2022-10-24T08:08:43.971Z,159317.94
2022-10-24T08:11:16.951Z,159312.56
2022-10-24T08:13:44.551Z,159336.56
2022-10-24T08:16:14.081Z,159348.59
2022-10-24T08:18:41.679Z,159345.94
2022-10-24T08:21:12.080Z,159325.91
2022-10-24T08:23:42.965Z,159331.22
2022-10-24T08:26:13.934Z,159371.28
2022-10-24T08:28:43.038Z,159392.63
2022-10-24T08:31:16.619Z,159396.66
2022-10-24T08:33:45.110Z,159400.63
2022-10-24T08:36:36.197Z,159408.63
2022-10-24T08:39:04.571Z,159403.34
2022-10-24T08:41:40.896Z,159419.34
2022-10-24T08:44:44.008Z,159418.00
2022-10-24T08:50:28.483Z,159451.34
2022-10-24T08:53:00.148Z,159471.38
2022-10-24T08:55:55.419Z,159520.78
2022-10-24T08:58:42.695Z,159554.19
2022-10-24T09:01:30.532Z,159603.59
2022-10-24T09:04:00.823Z,159705.13
2022-10-24T09:06:30.722Z,159742.56
2022-10-24T09:09:04.493Z,159801.34
2022-10-24T09:11:50.878Z,159862.81
2022-10-24T09:14:24.589Z,159935.00
2022-10-24T09:16:59.968Z,159985.78
2022-10-24T09:19:29.560Z,160000.47
2022-10-24T09:21:59.682Z,160041.91
2022-10-24T09:24:35.531Z,160045.97
2022-10-24T09:27:05.356Z,160058.06
2022-10-24T09:29:34.308Z,160106.16
2022-10-24T09:32:02.544Z,160139.59
2022-10-24T09:34:30.744Z,160151.66
2022-10-24T09:36:58.245Z,160174.38
2022-10-24T09:39:29.300Z,160201.13
2022-10-24T09:41:58.119Z,160202.47
2022-10-24T09:44:47.176Z,160146.28
2022-10-24T09:47:29.319Z,160165.03
2022-10-24T09:49:57.645Z,160163.66
2022-10-24T09:52:26.935Z,160130.25
2022-10-24T09:55:19.303Z,160151.66
2022-10-24T09:57:47.599Z,160143.63
2022-10-24T10:00:22.970Z,160161.00
2022-10-24T10:03:24.224Z,160167.69
2022-10-24T10:05:56.051Z,160197.09
2022-10-24T10:08:32.880Z,160233.22
2022-10-24T10:11:06.140Z,160237.25
2022-10-24T10:13:49.836Z,160226.50
2022-10-24T10:16:32.971Z,160235.91
2022-10-24T10:19:03.358Z,160234.59
2022-10-24T10:21:54.488Z,160237.25
2022-10-24T10:24:41.226Z,160259.97
2022-10-24T10:27:46.651Z,160285.41
2022-10-24T10:30:19.302Z,160274.69
2022-10-24T10:32:58.789Z,160285.41
2022-10-24T10:35:41.600Z,160308.13
2022-10-24T10:38:38.020Z,160300.13
2022-10-24T10:41:19.586Z,160330.88
2022-10-24T10:44:05.071Z,160356.31
2022-10-24T10:46:36.896Z,160388.44
2022-10-24T10:49:25.130Z,160419.25
2022-10-24T10:51:58.726Z,160413.91
2022-10-24T10:55:00.109Z,160431.28
2022-10-24T10:57:37.709Z,160442.00
2022-10-24T11:00:24.690Z,160429.94
2022-10-24T11:03:00.127Z,160452.69
2022-10-24T11:05:40.444Z,160447.38
2022-10-24T11:08:50.924Z,160447.38
2022-10-24T11:11:23.386Z,160424.59
2022-10-24T11:14:22.201Z,160421.91
2022-10-24T11:16:51.242Z,160427.28
2022-10-24T11:19:32.733Z,160431.28
2022-10-24T11:22:04.319Z,160443.34
2022-10-24T11:24:41.873Z,160456.72
2022-10-24T11:27:41.063Z,160471.44
2022-10-24T11:30:22.817Z,160488.88
2022-10-24T11:32:55.374Z,160479.47
2022-10-24T11:35:33.547Z,160515.59
2022-10-24T11:38:13.336Z,160537.00
2022-10-24T11:40:43.141Z,160535.69
2022-10-24T11:43:23.111Z,160562.47
2022-10-24T11:46:14.989Z,160550.41
2022-10-24T11:48:59.447Z,160549.06
2022-10-24T11:51:41.219Z,160569.16
2022-10-24T11:54:19.700Z,160593.25
2022-10-24T11:56:53.909Z,160602.66
2022-10-24T11:59:26.364Z,160614.66
2022-10-24T12:01:56.281Z,160634.75
2022-10-24T12:05:02.496Z,160691.03
2022-10-24T12:08:10.536Z,160764.72
2022-10-24T12:11:00.473Z,160762.03
2022-10-24T12:13:46.493Z,160812.91
2022-10-24T12:16:49.440Z,160862.47
2022-10-24T12:19:20.198Z,160921.47
2022-10-24T12:21:53.113Z,160953.59
2022-10-24T12:24:30.518Z,160969.75
2022-10-24T12:27:03.010Z,160997.91
2022-10-24T12:29:33.989Z,160995.19
2022-10-24T12:32:39.979Z,160996.53
2022-10-24T12:35:30.501Z,160992.53
2022-10-24T12:37:59.933Z,160988.50
2022-10-24T12:40:46.275Z,160973.75
2022-10-24T12:43:47.684Z,160973.75
2022-10-24T12:46:21.776Z,161012.63
2022-10-24T12:48:57.598Z,161020.69
2022-10-24T12:51:33.117Z,161015.31
2022-10-24T12:54:13.707Z,160969.75
2022-10-24T12:56:53.589Z,160961.63
2022-10-24T12:59:34.529Z,160964.34
2022-10-24T13:02:24.915Z,160963.00
2022-10-24T13:05:18.580Z,160987.16
2022-10-24T13:07:53.027Z,161000.56
2022-10-24T13:10:45.087Z,161007.28
2022-10-24T13:13:32.711Z,161000.56
2022-10-24T13:16:26.291Z,161017.97
2022-10-24T13:19:22.290Z,161013.97
2022-10-24T13:21:55.045Z,161012.63
2022-10-24T13:24:29.195Z,161015.31
2022-10-24T13:26:57.634Z,161027.38
2022-10-24T13:29:28.515Z,161024.66
2022-10-24T13:32:08.949Z,161035.41
2022-10-24T13:34:55.564Z,161007.28
2022-10-24T13:37:26.290Z,161011.25
2022-10-24T13:40:15.632Z,161000.56
2022-10-24T13:42:54.811Z,160976.41
2022-10-24T13:45:42.044Z,160954.91
2022-10-24T13:48:28.246Z,160948.22
2022-10-24T13:51:38.438Z,160938.84
2022-10-24T13:54:15.848Z,160937.53
2022-10-24T13:56:45.532Z,160934.88
2022-10-24T13:59:39.817Z,160930.81
2022-10-24T14:02:18.470Z,160922.78
2022-10-24T14:04:47.965Z,160925.44
2022-10-24T14:07:22.721Z,160921.47
2022-10-24T14:09:57.291Z,160914.75
2022-10-24T14:12:27.970Z,160932.16
2022-10-24T14:14:57.452Z,160901.34
2022-10-24T14:17:31.914Z,160904.00
2022-10-24T14:20:18.448Z,160877.22
2022-10-24T14:22:46.911Z,160859.81
2022-10-24T14:25:35.673Z,160862.47
2022-10-24T14:28:16.205Z,160855.78
2022-10-24T14:31:27.309Z,160854.44
2022-10-24T14:33:56.532Z,160845.09
2022-10-24T14:36:29.336Z,160823.66
2022-10-24T14:38:59.501Z,160808.94
2022-10-24T14:41:30.580Z,160792.88
2022-10-24T14:43:59.823Z,160766.06
2022-10-24T14:46:34.299Z,160733.91
2022-10-24T14:49:30.727Z,160715.19
2022-10-24T14:52:02.773Z,160703.13
2022-10-24T14:54:32.929Z,160665.59
2022-10-24T14:57:03.639Z,160664.19
2022-10-24T14:59:36.502Z,160638.78
2022-10-24T15:02:28.387Z,160602.66
2022-10-24T15:05:14.919Z,160551.72
2022-10-24T15:07:57.197Z,160516.94
2022-10-24T15:10:44.620Z,160480.78
2022-10-24T15:13:21.887Z,160450.03
2022-10-24T15:15:58.804Z,160413.91
2022-10-24T15:18:27.121Z,160392.50
2022-10-24T15:21:11.703Z,160314.84
2022-10-24T15:23:56.240Z,160333.59
2022-10-24T15:26:44.849Z,160305.47
2022-10-24T15:29:13.214Z,160272.03
2022-10-24T15:31:45.129Z,160230.53
2022-10-24T15:34:22.691Z,160197.09
2022-10-24T15:36:52.371Z,160163.66
2022-10-24T15:39:26.481Z,160132.91
2022-10-24T15:41:55.595Z,160100.84
2022-10-24T15:44:28.153Z,160072.75
2022-10-24T15:46:56.870Z,160036.56
2022-10-24T15:49:25.138Z,160008.53
2022-10-24T15:51:52.916Z,159987.09
2022-10-24T15:54:22.514Z,159967.09
2022-10-24T15:56:52.225Z,159936.31
2022-10-24T15:59:20.925Z,159918.97
2022-10-24T16:01:54.807Z,159900.22
2022-10-24T16:04:23.878Z,159876.19
2022-10-24T16:06:52.410Z,159854.81
2022-10-24T16:09:25.229Z,159836.09
2022-10-24T16:11:53.451Z,159814.72
2022-10-24T16:14:25.865Z,159797.34
2022-10-24T16:16:55.456Z,159789.31
2022-10-24T16:19:26.930Z,159766.59
2022-10-24T16:21:58.918Z,159739.88
2022-10-24T16:24:28.489Z,159731.84
2022-10-24T16:26:57.149Z,159721.19
2022-10-24T16:29:25.749Z,159702.47
2022-10-24T16:31:53.678Z,159679.72
2022-10-24T16:34:22.142Z,159667.69
2022-10-24T16:36:53.956Z,159649.03
2022-10-24T16:39:22.148Z,159618.28
2022-10-24T16:41:54.203Z,159616.94
2022-10-24T16:44:22.871Z,159599.63
2022-10-24T16:46:53.712Z,159591.56
2022-10-24T16:49:22.023Z,159576.88
2022-10-24T16:51:50.079Z,159548.81
2022-10-24T16:54:19.822Z,159550.19
2022-10-24T16:56:53.648Z,159534.13
2022-10-24T16:59:22.279Z,159515.47
2022-10-24T17:01:51.155Z,159488.75
2022-10-24T17:04:19.713Z,159459.41
2022-10-24T17:06:47.740Z,159442.03
2022-10-24T17:09:16.078Z,159440.69
2022-10-24T17:11:45.793Z,159422.00
2022-10-24T17:14:14.951Z,159403.34
2022-10-24T17:16:44.281Z,159397.97
2022-10-24T17:19:16.234Z,159381.97
2022-10-24T17:21:47.533Z,159373.97
2022-10-24T17:24:19.171Z,159352.56
2022-10-24T17:26:48.052Z,159349.94
2022-10-24T17:29:27.432Z,159340.59
2022-10-24T17:31:55.353Z,159331.22
2022-10-24T17:34:24.048Z,159325.91
2022-10-24T17:37:08.413Z,159311.25
2022-10-24T17:39:45.847Z,159289.91
2022-10-24T17:42:13.869Z,159288.53
2022-10-24T17:44:43.278Z,159284.56
2022-10-24T17:47:12.519Z,159263.16
2022-10-24T17:49:41.257Z,159248.47
2022-10-24T17:52:12.295Z,159224.44
2022-10-24T17:54:44.905Z,159207.09
2022-10-24T17:57:14.281Z,159209.75
2022-10-24T17:59:42.616Z,159200.44
2022-10-24T18:02:14.571Z,159183.06
2022-10-24T18:04:44.873Z,159176.41
2022-10-24T18:07:13.115Z,159171.09
2022-10-24T18:09:41.512Z,159155.06
2022-10-24T18:12:10.493Z,159157.75
2022-10-24T18:14:38.822Z,159145.72
2022-10-24T18:17:06.938Z,159143.09
2022-10-24T18:19:35.616Z,159133.72
2022-10-24T18:22:04.911Z,159129.75
2022-10-24T18:24:33.799Z,159120.41
2022-10-24T18:27:01.939Z,159120.41
2022-10-24T18:29:30.482Z,159116.41
2022-10-24T18:31:58.509Z,159129.75
2022-10-24T18:34:26.797Z,159115.06
2022-10-24T18:36:54.584Z,159133.72
2022-10-24T18:39:26.292Z,159139.06
2022-10-24T18:42:00.915Z,159140.38
2022-10-24T18:44:32.262Z,159131.06
2022-10-24T18:47:03.161Z,159149.75
2022-10-24T18:49:33.757Z,159149.75
2022-10-24T18:52:11.882Z,159147.06
2022-10-24T18:55:13.473Z,159144.41
2022-10-24T18:57:41.582Z,159151.06
2022-10-24T19:00:13.899Z,159156.44
2022-10-24T19:02:54.555Z,159169.78
2022-10-24T19:05:25.938Z,159176.41
2022-10-24T19:07:54.742Z,159156.44
2022-10-24T19:10:26.363Z,159185.75
2022-10-24T19:12:55.933Z,159179.09
2022-10-24T19:15:25.799Z,159185.75
2022-10-24T19:17:54.165Z,159187.09
2022-10-24T19:20:24.514Z,159212.47
2022-10-24T19:22:52.882Z,159232.44
2022-10-24T19:25:21.101Z,159240.47
2022-10-24T19:27:50.012Z,159243.13
2022-10-24T19:30:18.936Z,159240.47
2022-10-24T19:32:47.269Z,159251.13
2022-10-24T19:35:17.847Z,159260.44
2022-10-24T19:37:46.075Z,159271.19
2022-10-24T19:40:14.837Z,159279.19
2022-10-24T19:42:42.728Z,159285.88
2022-10-24T19:45:11.221Z,159285.88
2022-10-24T19:47:38.971Z,159299.22
2022-10-24T19:50:08.079Z,159299.22
2022-10-24T19:52:36.415Z,159307.22
2022-10-24T19:55:05.357Z,159309.88
2022-10-24T19:57:33.603Z,159319.25
2022-10-24T20:00:02.399Z,159325.91
2022-10-24T20:02:39.281Z,159319.25
2022-10-24T20:05:08.552Z,159328.56
2022-10-24T20:07:36.357Z,159341.94
2022-10-24T20:10:05.146Z,159352.56
2022-10-24T20:12:33.463Z,159359.25
2022-10-24T20:15:01.403Z,159381.97
2022-10-24T20:17:30.012Z,159383.31
2022-10-24T20:19:58.537Z,159400.63
2022-10-24T20:22:26.405Z,159436.66
2022-10-24T20:24:54.987Z,159462.06
2022-10-24T20:27:26.801Z,159499.41
2022-10-24T20:29:55.641Z,159532.81
2022-10-24T20:32:23.826Z,159560.84
2022-10-24T20:34:52.191Z,159584.88
2022-10-24T20:37:20.469Z,159607.63
2022-10-24T20:39:49.481Z,159643.66
2022-10-24T20:42:18.181Z,159687.78
2022-10-24T20:44:46.749Z,159719.88
2022-10-24T20:47:15.282Z,159763.94
2022-10-24T20:49:43.522Z,159808.03
2022-10-24T20:54:41.760Z,159866.81
2022-10-24T20:57:10.393Z,159897.56
2022-10-24T20:59:40.530Z,159920.28
2022-10-24T21:02:10.826Z,159924.31
2022-10-24T21:04:39.578Z,159960.41
2022-10-24T21:07:07.349Z,159960.41
2022-10-24T21:09:35.795Z,159989.81
2022-10-24T21:12:04.419Z,160013.84
2022-10-24T21:14:32.531Z,160024.56
2022-10-24T21:17:01.064Z,160033.91
2022-10-24T21:19:30.888Z,160049.94
2022-10-24T21:21:59.205Z,160059.38
2022-10-24T21:24:27.279Z,160068.72
2022-10-24T21:26:55.661Z,160076.75
2022-10-24T21:29:39.115Z,160090.13
2022-10-24T21:32:07.563Z,160112.84
2022-10-24T21:34:35.785Z,160116.88
2022-10-24T21:37:04.653Z,160128.91
2022-10-24T21:39:33.297Z,160142.25
2022-10-24T21:42:01.666Z,160146.28
2022-10-24T21:44:30.202Z,160157.00
2022-10-24T21:46:58.312Z,160142.25
2022-10-24T21:49:26.348Z,160138.28
2022-10-24T21:51:54.272Z,160154.31
2022-10-24T21:54:24.208Z,160163.66
2022-10-24T21:56:52.221Z,160161.00
2022-10-24T21:59:21.493Z,160170.34
2022-10-24T22:01:51.926Z,160167.69
2022-10-24T22:04:21.713Z,160175.69
2022-10-24T22:06:49.757Z,160177.03
2022-10-24T22:09:20.620Z,160178.41
2022-10-24T22:11:48.798Z,160178.41
2022-10-24T22:14:18.238Z,160182.38
2022-10-24T22:16:46.204Z,160183.72
2022-10-24T22:19:14.913Z,160190.41
2022-10-24T22:21:44.983Z,160186.41
2022-10-24T22:24:17.323Z,160183.72
2022-10-24T22:26:46.205Z,160157.00
2022-10-24T22:29:17.524Z,160182.38
2022-10-24T22:31:46.299Z,160161.00
2022-10-24T22:34:20.368Z,160136.94
2022-10-24T22:37:07.254Z,160135.56
2022-10-24T22:39:35.957Z,160126.22
2022-10-24T22:42:07.129Z,160122.22
2022-10-24T22:44:35.547Z,160131.56
2022-10-24T22:47:09.220Z,160131.56
2022-10-24T22:49:47.509Z,160132.91
2022-10-24T22:52:15.521Z,160123.56
2022-10-24T22:54:43.966Z,160124.88
2022-10-24T22:57:12.119Z,160112.84
2022-10-24T22:59:40.428Z,160096.81
2022-10-24T23:02:33.948Z,160104.81
2022-10-24T23:05:34.793Z,160088.78
2022-10-24T23:08:12.634Z,160060.72
2022-10-24T23:10:41.119Z,160063.38
2022-10-24T23:13:09.896Z,160055.34
2022-10-24T23:15:38.703Z,160043.25
2022-10-24T23:18:09.111Z,160028.53
2022-10-24T23:20:43.829Z,160036.56
2022-10-24T23:23:28.147Z,160039.25
2022-10-24T23:26:04.765Z,160035.25
2022-10-24T23:28:51.373Z,160031.25
2022-10-24T23:31:20.120Z,160027.22
2022-10-24T23:33:48.668Z,160027.22
2022-10-24T23:36:25.054Z,160029.94
2022-10-24T23:38:56.306Z,160009.88
2022-10-24T23:41:24.820Z,159997.81
2022-10-24T23:43:53.199Z,159987.09
2022-10-24T23:46:49.868Z,159968.41
2022-10-24T23:49:38.288Z,159963.06
2022-10-24T23:52:26.912Z,159959.03
2022-10-24T23:54:56.141Z,159951.00
2022-10-24T23:57:24.850Z,159928.31
2022-10-24T23:59:52.960Z,159948.34
